sensor_id;sensor_type;location;lat;lon;timestamp;temperature;humidity
9949;DHT22;5013;51.840;8.276;2023-03-23T00:01:19;12.50;99.90
9949;DHT22;5013;51.840;8.276;2023-03-23T00:03:47;12.50;99.90
9949;DHT22;5013;51.840;8.276;2023-03-23T00:06:13;12.50;99.90
9949;DHT22;5013;51.840;8.276;2023-03-23T00:08:44;12.30;1.00
9949;DHT22;5013;51.840;8.276;2023-03-23T00:11:16;12.40;1.00
9949;DHT22;5013;51.840;8.276;2023-03-23T00:13:43;12.30;1.00
9949;DHT22;5013;51.840;8.276;2023-03-23T00:16:11;12.30;1.00
9949;DHT22;5013;51.840;8.276;2023-03-23T00:18:46;12.40;1.00
9949;DHT22;5013;51.840;8.276;2023-03-23T00:21:12;12.20;1.00
9949;DHT22;5013;51.840;8.276;2023-03-23T00:23:38;12.30;1.00
9949;DHT22;5013;51.840;8.276;2023-03-23T00:26:04;12.30;1.00
9949;DHT22;5013;51.840;8.276;2023-03-23T00:28:30;12.30;1.00
9949;DHT22;5013;51.840;8.276;2023-03-23T00:30:59;12.30;1.00
9949;DHT22;5013;51.840;8.276;2023-03-23T00:33:28;12.20;1.00
9949;DHT22;5013;51.840;8.276;2023-03-23T00:35:55;12.30;1.00
9949;DHT22;5013;51.840;8.276;2023-03-23T00:38:24;12.20;73.30
9949;DHT22;5013;51.840;8.276;2023-03-23T00:40:50;12.20;74.40
9949;DHT22;5013;51.840;8.276;2023-03-23T00:43:18;12.20;1.00
9949;DHT22;5013;51.840;8.276;2023-03-23T00:45:44;12.20;1.00
9949;DHT22;5013;51.840;8.276;2023-03-23T00:48:10;12.20;1.00
9949;DHT22;5013;51.840;8.276;2023-03-23T00:50:38;12.20;1.00
9949;DHT22;5013;51.840;8.276;2023-03-23T00:53:04;12.10;1.00
9949;DHT22;5013;51.840;8.276;2023-03-23T00:55:29;12.20;1.00
9949;DHT22;5013;51.840;8.276;2023-03-23T00:57:56;12.20;1.00
9949;DHT22;5013;51.840;8.276;2023-03-23T01:00:22;12.20;99.90
9949;DHT22;5013;51.840;8.276;2023-03-23T01:02:49;12.20;1.00
9949;DHT22;5013;51.840;8.276;2023-03-23T01:05:17;12.20;99.90
9949;DHT22;5013;51.840;8.276;2023-03-23T01:07:43;12.30;99.90
9949;DHT22;5013;51.840;8.276;2023-03-23T01:10:10;12.20;99.90
9949;DHT22;5013;51.840;8.276;2023-03-23T01:12:38;12.30;3.00
9949;DHT22;5013;51.840;8.276;2023-03-23T01:15:05;12.30;1.00
9949;DHT22;5013;51.840;8.276;2023-03-23T01:17:31;12.30;25.10
9949;DHT22;5013;51.840;8.276;2023-03-23T01:19:57;12.30;1.00
9949;DHT22;5013;51.840;8.276;2023-03-23T01:22:22;12.30;1.00
9949;DHT22;5013;51.840;8.276;2023-03-23T01:24:48;12.30;13.70
9949;DHT22;5013;51.840;8.276;2023-03-23T01:27:14;12.30;12.50
9949;DHT22;5013;51.840;8.276;2023-03-23T01:29:39;12.30;32.40
9949;DHT22;5013;51.840;8.276;2023-03-23T01:32:05;12.20;99.90
9949;DHT22;5013;51.840;8.276;2023-03-23T01:34:31;12.20;99.90
9949;DHT22;5013;51.840;8.276;2023-03-23T01:36:56;12.20;99.90
9949;DHT22;5013;51.840;8.276;2023-03-23T01:39:22;12.30;99.90
9949;DHT22;5013;51.840;8.276;2023-03-23T01:41:48;12.20;99.90
9949;DHT22;5013;51.840;8.276;2023-03-23T01:46:43;12.20;1.00
9949;DHT22;5013;51.840;8.276;2023-03-23T01:49:16;12.20;1.00
9949;DHT22;5013;51.840;8.276;2023-03-23T01:52:04;12.20;1.00
9949;DHT22;5013;51.840;8.276;2023-03-23T01:54:32;12.30;99.90
9949;DHT22;5013;51.840;8.276;2023-03-23T01:57:03;12.30;1.00
9949;DHT22;5013;51.840;8.276;2023-03-23T01:59:31;12.20;1.00
9949;DHT22;5013;51.840;8.276;2023-03-23T02:01:58;12.20;1.00
9949;DHT22;5013;51.840;8.276;2023-03-23T02:04:27;12.20;99.90
9949;DHT22;5013;51.840;8.276;2023-03-23T02:06:53;12.20;26.40
9949;DHT22;5013;51.840;8.276;2023-03-23T02:09:20;12.20;95.80
9949;DHT22;5013;51.840;8.276;2023-03-23T02:11:47;12.20;99.90
9949;DHT22;5013;51.840;8.276;2023-03-23T02:14:15;12.10;99.90
9949;DHT22;5013;51.840;8.276;2023-03-23T02:27:08;12.10;1.00
9949;DHT22;5013;51.840;8.276;2023-03-23T02:32:34;12.10;99.90
9949;DHT22;5013;51.840;8.276;2023-03-23T02:35:05;12.00;1.00
9949;DHT22;5013;51.840;8.276;2023-03-23T02:37:38;12.00;33.10
9949;DHT22;5013;51.840;8.276;2023-03-23T02:40:14;11.90;1.00
9949;DHT22;5013;51.840;8.276;2023-03-23T02:42:44;12.00;1.00
9949;DHT22;5013;51.840;8.276;2023-03-23T02:45:12;11.90;99.90
9949;DHT22;5013;51.840;8.276;2023-03-23T02:47:39;11.90;1.00
9949;DHT22;5013;51.840;8.276;2023-03-23T02:50:10;11.80;1.00
9949;DHT22;5013;51.840;8.276;2023-03-23T02:52:39;11.80;1.00
9949;DHT22;5013;51.840;8.276;2023-03-23T02:55:07;11.70;99.90
9949;DHT22;5013;51.840;8.276;2023-03-23T02:57:33;11.70;1.00
9949;DHT22;5013;51.840;8.276;2023-03-23T03:00:00;11.70;1.00
9949;DHT22;5013;51.840;8.276;2023-03-23T03:02:34;11.70;1.00
9949;DHT22;5013;51.840;8.276;2023-03-23T03:05:04;11.70;1.00
9949;DHT22;5013;51.840;8.276;2023-03-23T03:10:54;11.80;99.90
9949;DHT22;5013;51.840;8.276;2023-03-23T03:21:28;11.70;1.00
9949;DHT22;5013;51.840;8.276;2023-03-23T03:23:58;11.70;1.00
9949;DHT22;5013;51.840;8.276;2023-03-23T03:26:27;11.70;1.00
9949;DHT22;5013;51.840;8.276;2023-03-23T03:28:53;11.70;1.00
9949;DHT22;5013;51.840;8.276;2023-03-23T03:31:30;11.70;1.00
9949;DHT22;5013;51.840;8.276;2023-03-23T03:33:57;11.80;1.00
9949;DHT22;5013;51.840;8.276;2023-03-23T03:36:28;11.70;99.90
9949;DHT22;5013;51.840;8.276;2023-03-23T03:39:03;11.70;1.00
9949;DHT22;5013;51.840;8.276;2023-03-23T03:41:30;11.70;1.00
9949;DHT22;5013;51.840;8.276;2023-03-23T03:43:56;11.70;99.90
9949;DHT22;5013;51.840;8.276;2023-03-23T03:46:21;11.60;99.90
9949;DHT22;5013;51.840;8.276;2023-03-23T03:48:47;11.70;99.90
9949;DHT22;5013;51.840;8.276;2023-03-23T03:51:12;11.60;1.00
9949;DHT22;5013;51.840;8.276;2023-03-23T03:53:38;11.70;99.90
9949;DHT22;5013;51.840;8.276;2023-03-23T03:56:04;11.60;99.90
9949;DHT22;5013;51.840;8.276;2023-03-23T03:58:30;11.60;1.00
9949;DHT22;5013;51.840;8.276;2023-03-23T04:01:00;11.60;1.00
9949;DHT22;5013;51.840;8.276;2023-03-23T04:03:27;11.50;1.00
9949;DHT22;5013;51.840;8.276;2023-03-23T04:05:54;11.50;1.00
9949;DHT22;5013;51.840;8.276;2023-03-23T04:08:24;11.50;1.00
9949;DHT22;5013;51.840;8.276;2023-03-23T04:10:52;11.50;1.00
9949;DHT22;5013;51.840;8.276;2023-03-23T04:13:19;11.50;1.00
9949;DHT22;5013;51.840;8.276;2023-03-23T04:15:46;11.50;99.90
9949;DHT22;5013;51.840;8.276;2023-03-23T04:18:12;11.50;99.90
9949;DHT22;5013;51.840;8.276;2023-03-23T04:20:41;11.50;99.90
9949;DHT22;5013;51.840;8.276;2023-03-23T04:23:06;11.50;1.00
9949;DHT22;5013;51.840;8.276;2023-03-23T04:25:32;11.50;1.00
9949;DHT22;5013;51.840;8.276;2023-03-23T04:27:59;11.50;1.00
9949;DHT22;5013;51.840;8.276;2023-03-23T04:30:25;11.40;1.00
9949;DHT22;5013;51.840;8.276;2023-03-23T04:32:52;11.50;1.00
9949;DHT22;5013;51.840;8.276;2023-03-23T04:35:22;11.50;1.00
9949;DHT22;5013;51.840;8.276;2023-03-23T04:37:48;11.40;1.00
9949;DHT22;5013;51.840;8.276;2023-03-23T04:40:14;11.50;1.00
9949;DHT22;5013;51.840;8.276;2023-03-23T04:42:44;11.50;1.00
9949;DHT22;5013;51.840;8.276;2023-03-23T04:45:16;11.50;1.00
9949;DHT22;5013;51.840;8.276;2023-03-23T04:47:48;11.50;1.00
9949;DHT22;5013;51.840;8.276;2023-03-23T04:50:33;11.50;1.00
9949;DHT22;5013;51.840;8.276;2023-03-23T04:53:00;11.50;99.90
9949;DHT22;5013;51.840;8.276;2023-03-23T04:55:34;11.50;99.90
9949;DHT22;5013;51.840;8.276;2023-03-23T04:58:04;11.50;99.90
9949;DHT22;5013;51.840;8.276;2023-03-23T05:00:31;11.50;93.10
9949;DHT22;5013;51.840;8.276;2023-03-23T05:02:57;11.50;1.00
9949;DHT22;5013;51.840;8.276;2023-03-23T05:05:24;11.60;1.00
9949;DHT22;5013;51.840;8.276;2023-03-23T05:07:50;11.60;99.90
9949;DHT22;5013;51.840;8.276;2023-03-23T05:10:17;11.60;99.90
9949;DHT22;5013;51.840;8.276;2023-03-23T05:12:43;11.50;99.90
9949;DHT22;5013;51.840;8.276;2023-03-23T05:15:10;11.60;1.00
9949;DHT22;5013;51.840;8.276;2023-03-23T05:17:37;11.60;1.00
9949;DHT22;5013;51.840;8.276;2023-03-23T05:20:04;11.50;1.00
9949;DHT22;5013;51.840;8.276;2023-03-23T05:22:35;11.60;99.90
9949;DHT22;5013;51.840;8.276;2023-03-23T05:25:02;11.50;1.00
9949;DHT22;5013;51.840;8.276;2023-03-23T05:27:28;11.60;99.90
9949;DHT22;5013;51.840;8.276;2023-03-23T05:29:56;11.50;1.00
9949;DHT22;5013;51.840;8.276;2023-03-23T05:32:26;11.50;99.90
9949;DHT22;5013;51.840;8.276;2023-03-23T05:34:55;11.60;99.90
9949;DHT22;5013;51.840;8.276;2023-03-23T05:37:21;11.60;99.90
9949;DHT22;5013;51.840;8.276;2023-03-23T05:39:47;11.60;1.00
9949;DHT22;5013;51.840;8.276;2023-03-23T05:42:13;11.60;1.00
9949;DHT22;5013;51.840;8.276;2023-03-23T05:44:38;11.70;99.90
9949;DHT22;5013;51.840;8.276;2023-03-23T05:47:04;11.70;99.90
9949;DHT22;5013;51.840;8.276;2023-03-23T05:49:30;11.70;99.90
9949;DHT22;5013;51.840;8.276;2023-03-23T05:51:56;11.70;99.90
9949;DHT22;5013;51.840;8.276;2023-03-23T05:54:21;11.70;91.30
9949;DHT22;5013;51.840;8.276;2023-03-23T05:56:47;11.70;87.50
9949;DHT22;5013;51.840;8.276;2023-03-23T05:59:14;11.80;99.90
9949;DHT22;5013;51.840;8.276;2023-03-23T06:01:40;11.80;1.00
9949;DHT22;5013;51.840;8.276;2023-03-23T06:04:06;11.80;1.00
9949;DHT22;5013;51.840;8.276;2023-03-23T06:06:31;11.80;1.00
9949;DHT22;5013;51.840;8.276;2023-03-23T06:08:58;11.90;1.00
9949;DHT22;5013;51.840;8.276;2023-03-23T06:11:24;11.90;99.90
9949;DHT22;5013;51.840;8.276;2023-03-23T06:13:51;11.90;99.90
9949;DHT22;5013;51.840;8.276;2023-03-23T06:16:17;12.00;99.90
9949;DHT22;5013;51.840;8.276;2023-03-23T06:18:43;12.10;1.00
9949;DHT22;5013;51.840;8.276;2023-03-23T06:21:09;12.10;99.90
9949;DHT22;5013;51.840;8.276;2023-03-23T06:23:35;12.10;1.00
9949;DHT22;5013;51.840;8.276;2023-03-23T06:26:04;12.10;1.00
9949;DHT22;5013;51.840;8.276;2023-03-23T06:28:31;12.10;1.00
9949;DHT22;5013;51.840;8.276;2023-03-23T06:31:00;12.10;1.00
9949;DHT22;5013;51.840;8.276;2023-03-23T06:33:25;12.10;1.00
9949;DHT22;5013;51.840;8.276;2023-03-23T06:35:51;12.20;99.90
9949;DHT22;5013;51.840;8.276;2023-03-23T06:38:17;12.30;99.90
9949;DHT22;5013;51.840;8.276;2023-03-23T06:40:42;12.40;99.90
9949;DHT22;5013;51.840;8.276;2023-03-23T06:43:12;12.40;1.00
9949;DHT22;5013;51.840;8.276;2023-03-23T06:45:37;12.40;81.20
9949;DHT22;5013;51.840;8.276;2023-03-23T06:48:03;12.40;99.90
9949;DHT22;5013;51.840;8.276;2023-03-23T06:50:29;12.40;1.00
9949;DHT22;5013;51.840;8.276;2023-03-23T06:52:54;12.40;1.00
9949;DHT22;5013;51.840;8.276;2023-03-23T06:55:20;12.50;1.00
9949;DHT22;5013;51.840;8.276;2023-03-23T06:57:47;12.40;1.00
9949;DHT22;5013;51.840;8.276;2023-03-23T07:00:16;12.40;1.00
9949;DHT22;5013;51.840;8.276;2023-03-23T07:02:42;12.50;1.00
9949;DHT22;5013;51.840;8.276;2023-03-23T07:05:09;12.50;1.00
9949;DHT22;5013;51.840;8.276;2023-03-23T07:07:36;12.50;1.00
9949;DHT22;5013;51.840;8.276;2023-03-23T07:10:04;12.60;1.00
9949;DHT22;5013;51.840;8.276;2023-03-23T07:12:30;12.60;1.00
9949;DHT22;5013;51.840;8.276;2023-03-23T07:14:56;12.70;1.00
9949;DHT22;5013;51.840;8.276;2023-03-23T07:17:21;12.80;99.90
9949;DHT22;5013;51.840;8.276;2023-03-23T07:19:47;12.80;99.90
9949;DHT22;5013;51.840;8.276;2023-03-23T07:22:13;12.90;1.00
9949;DHT22;5013;51.840;8.276;2023-03-23T07:24:38;12.90;1.00
9949;DHT22;5013;51.840;8.276;2023-03-23T07:27:04;12.90;1.00
9949;DHT22;5013;51.840;8.276;2023-03-23T07:29:29;12.80;47.80
9949;DHT22;5013;51.840;8.276;2023-03-23T07:31:56;12.80;99.90
9949;DHT22;5013;51.840;8.276;2023-03-23T07:34:22;12.80;99.90
9949;DHT22;5013;51.840;8.276;2023-03-23T07:36:48;12.80;99.90
9949;DHT22;5013;51.840;8.276;2023-03-23T07:39:14;12.90;99.90
9949;DHT22;5013;51.840;8.276;2023-03-23T07:41:40;12.90;37.60
9949;DHT22;5013;51.840;8.276;2023-03-23T07:44:06;13.20;1.00
9949;DHT22;5013;51.840;8.276;2023-03-23T07:46:32;13.20;1.00
9949;DHT22;5013;51.840;8.276;2023-03-23T07:48:58;13.30;1.00
9949;DHT22;5013;51.840;8.276;2023-03-23T07:51:24;13.30;99.90
9949;DHT22;5013;51.840;8.276;2023-03-23T07:53:50;13.30;99.90
9949;DHT22;5013;51.840;8.276;2023-03-23T07:56:16;13.30;99.90
9949;DHT22;5013;51.840;8.276;2023-03-23T07:58:45;13.30;1.00
9949;DHT22;5013;51.840;8.276;2023-03-23T08:04:33;13.30;1.00
9949;DHT22;5013;51.840;8.276;2023-03-23T08:07:02;13.50;1.00
9949;DHT22;5013;51.840;8.276;2023-03-23T08:09:28;13.70;99.90
9949;DHT22;5013;51.840;8.276;2023-03-23T08:11:54;13.70;99.90
9949;DHT22;5013;51.840;8.276;2023-03-23T08:14:19;13.80;99.90
9949;DHT22;5013;51.840;8.276;2023-03-23T08:16:45;14.00;1.00
9949;DHT22;5013;51.840;8.276;2023-03-23T08:19:11;14.00;1.00
9949;DHT22;5013;51.840;8.276;2023-03-23T08:21:36;14.00;99.90
9949;DHT22;5013;51.840;8.276;2023-03-23T08:24:02;14.00;1.00
9949;DHT22;5013;51.840;8.276;2023-03-23T08:26:28;14.10;99.90
9949;DHT22;5013;51.840;8.276;2023-03-23T08:28:53;14.00;99.90
9949;DHT22;5013;51.840;8.276;2023-03-23T08:31:19;14.00;98.30
9949;DHT22;5013;51.840;8.276;2023-03-23T08:33:45;14.00;99.90
9949;DHT22;5013;51.840;8.276;2023-03-23T08:36:10;14.10;99.90
9949;DHT22;5013;51.840;8.276;2023-03-23T08:38:36;14.10;99.90
9949;DHT22;5013;51.840;8.276;2023-03-23T08:41:04;14.00;99.90
9949;DHT22;5013;51.840;8.276;2023-03-23T08:43:32;14.00;99.90
9949;DHT22;5013;51.840;8.276;2023-03-23T08:45:59;13.90;99.90
9949;DHT22;5013;51.840;8.276;2023-03-23T08:48:25;13.80;99.90
9949;DHT22;5013;51.840;8.276;2023-03-23T08:50:51;13.80;99.90
9949;DHT22;5013;51.840;8.276;2023-03-23T08:53:18;13.80;99.90
9949;DHT22;5013;51.840;8.276;2023-03-23T08:55:44;13.80;99.90
9949;DHT22;5013;51.840;8.276;2023-03-23T08:58:10;13.90;99.90
9949;DHT22;5013;51.840;8.276;2023-03-23T09:00:35;14.10;99.90
9949;DHT22;5013;51.840;8.276;2023-03-23T09:03:01;14.10;74.70
9949;DHT22;5013;51.840;8.276;2023-03-23T09:05:28;14.20;77.50
9949;DHT22;5013;51.840;8.276;2023-03-23T09:07:56;14.20;25.00
9949;DHT22;5013;51.840;8.276;2023-03-23T09:10:25;14.30;99.90
9949;DHT22;5013;51.840;8.276;2023-03-23T09:12:53;14.40;1.00
9949;DHT22;5013;51.840;8.276;2023-03-23T09:15:19;14.50;1.00
9949;DHT22;5013;51.840;8.276;2023-03-23T09:17:47;14.80;1.00
9949;DHT22;5013;51.840;8.276;2023-03-23T09:20:16;14.90;99.90
9949;DHT22;5013;51.840;8.276;2023-03-23T09:22:46;15.00;1.00
9949;DHT22;5013;51.840;8.276;2023-03-23T09:25:15;14.80;99.90
9949;DHT22;5013;51.840;8.276;2023-03-23T09:27:42;14.70;99.90
9949;DHT22;5013;51.840;8.276;2023-03-23T09:30:11;14.60;99.90
9949;DHT22;5013;51.840;8.276;2023-03-23T09:32:38;14.60;99.90
9949;DHT22;5013;51.840;8.276;2023-03-23T09:35:06;14.70;99.90
9949;DHT22;5013;51.840;8.276;2023-03-23T09:37:37;14.80;99.90
9949;DHT22;5013;51.840;8.276;2023-03-23T09:40:16;14.90;99.90
9949;DHT22;5013;51.840;8.276;2023-03-23T09:50:38;14.90;99.90
9949;DHT22;5013;51.840;8.276;2023-03-23T09:53:14;14.80;1.00
9949;DHT22;5013;51.840;8.276;2023-03-23T09:55:40;14.80;5.30
9949;DHT22;5013;51.840;8.276;2023-03-23T09:58:24;14.90;99.90
9949;DHT22;5013;51.840;8.276;2023-03-23T10:03:27;15.00;73.70
9949;DHT22;5013;51.840;8.276;2023-03-23T10:05:56;15.00;1.00
9949;DHT22;5013;51.840;8.276;2023-03-23T10:08:30;15.10;40.20
9949;DHT22;5013;51.840;8.276;2023-03-23T10:13:57;15.30;1.00
9949;DHT22;5013;51.840;8.276;2023-03-23T10:16:28;15.30;1.00
9949;DHT22;5013;51.840;8.276;2023-03-23T10:19:00;15.40;1.00
9949;DHT22;5013;51.840;8.276;2023-03-23T10:21:28;15.80;1.00
9949;DHT22;5013;51.840;8.276;2023-03-23T10:24:04;15.80;1.00
9949;DHT22;5013;51.840;8.276;2023-03-23T10:32:11;15.50;1.00
9949;DHT22;5013;51.840;8.276;2023-03-23T10:34:52;15.50;1.00
9949;DHT22;5013;51.840;8.276;2023-03-23T10:37:26;15.50;1.00
9949;DHT22;5013;51.840;8.276;2023-03-23T10:39:54;15.50;1.00
9949;DHT22;5013;51.840;8.276;2023-03-23T10:42:34;15.30;1.00
9949;DHT22;5013;51.840;8.276;2023-03-23T10:45:17;15.10;1.00
9949;DHT22;5013;51.840;8.276;2023-03-23T10:50:35;14.60;99.90
9949;DHT22;5013;51.840;8.276;2023-03-23T10:53:07;14.50;99.90
9949;DHT22;5013;51.840;8.276;2023-03-23T10:55:39;14.40;99.90
9949;DHT22;5013;51.840;8.276;2023-03-23T10:58:09;14.40;1.00
9949;DHT22;5013;51.840;8.276;2023-03-23T11:00:46;14.30;1.00
9949;DHT22;5013;51.840;8.276;2023-03-23T11:05:56;14.10;1.00
9949;DHT22;5013;51.840;8.276;2023-03-23T11:08:28;13.50;99.90
9949;DHT22;5013;51.840;8.276;2023-03-23T11:14:11;12.30;1.00
9949;DHT22;5013;51.840;8.276;2023-03-23T11:16:50;12.20;96.00
9949;DHT22;5013;51.840;8.276;2023-03-23T11:19:25;12.00;1.00
9949;DHT22;5013;51.840;8.276;2023-03-23T11:24:40;11.80;1.00
9949;DHT22;5013;51.840;8.276;2023-03-23T11:27:07;11.80;1.00
9949;DHT22;5013;51.840;8.276;2023-03-23T11:29:35;11.70;21.00
9949;DHT22;5013;51.840;8.276;2023-03-23T11:32:09;11.60;1.00
9949;DHT22;5013;51.840;8.276;2023-03-23T11:34:41;11.50;99.90
9949;DHT22;5013;51.840;8.276;2023-03-23T11:37:40;11.60;1.00
9949;DHT22;5013;51.840;8.276;2023-03-23T11:42:43;11.50;99.90
9949;DHT22;5013;51.840;8.276;2023-03-23T11:48:13;11.70;99.90
9949;DHT22;5013;51.840;8.276;2023-03-23T11:51:05;11.70;99.90
9949;DHT22;5013;51.840;8.276;2023-03-23T11:53:54;11.70;1.00
9949;DHT22;5013;51.840;8.276;2023-03-23T11:56:30;11.60;1.00
9949;DHT22;5013;51.840;8.276;2023-03-23T11:58:59;11.60;1.00
9949;DHT22;5013;51.840;8.276;2023-03-23T12:04:32;11.60;99.90
9949;DHT22;5013;51.840;8.276;2023-03-23T12:10:25;11.70;1.00
9949;DHT22;5013;51.840;8.276;2023-03-23T12:12:42;11.70;99.90
9949;DHT22;5013;51.840;8.276;2023-03-23T12:21:34;12.10;1.00
9949;DHT22;5013;51.840;8.276;2023-03-23T12:26:53;12.20;99.90
9949;DHT22;5013;51.840;8.276;2023-03-23T12:34:42;12.40;1.00
9949;DHT22;5013;51.840;8.276;2023-03-23T12:52:14;12.00;1.00
9949;DHT22;5013;51.840;8.276;2023-03-23T12:55:05;12.00;99.90
9949;DHT22;5013;51.840;8.276;2023-03-23T12:57:47;12.00;1.00
9949;DHT22;5013;51.840;8.276;2023-03-23T13:05:53;12.20;99.90
9949;DHT22;5013;51.840;8.276;2023-03-23T13:08:33;12.40;1.00
9949;DHT22;5013;51.840;8.276;2023-03-23T13:11:05;12.40;99.90
9949;DHT22;5013;51.840;8.276;2023-03-23T13:13:50;12.40;1.00
9949;DHT22;5013;51.840;8.276;2023-03-23T13:16:35;12.30;1.00
9949;DHT22;5013;51.840;8.276;2023-03-23T13:24:13;12.10;1.00
9949;DHT22;5013;51.840;8.276;2023-03-23T13:26:41;12.40;99.90
9949;DHT22;5013;51.840;8.276;2023-03-23T13:29:20;12.50;72.90
9949;DHT22;5013;51.840;8.276;2023-03-23T13:31:50;12.40;1.00
9949;DHT22;5013;51.840;8.276;2023-03-23T13:34:39;12.40;28.20
9949;DHT22;5013;51.840;8.276;2023-03-23T13:37:10;12.50;1.00
9949;DHT22;5013;51.840;8.276;2023-03-23T13:39:52;12.50;99.90
9949;DHT22;5013;51.840;8.276;2023-03-23T13:42:24;12.50;99.90
9949;DHT22;5013;51.840;8.276;2023-03-23T13:55:22;13.00;1.00
9949;DHT22;5013;51.840;8.276;2023-03-23T13:58:09;13.20;80.10
9949;DHT22;5013;51.840;8.276;2023-03-23T14:00:37;13.30;8.90
9949;DHT22;5013;51.840;8.276;2023-03-23T14:03:14;13.40;99.90
9949;DHT22;5013;51.840;8.276;2023-03-23T14:08:22;13.40;1.00
9949;DHT22;5013;51.840;8.276;2023-03-23T14:16:00;13.60;1.00
9949;DHT22;5013;51.840;8.276;2023-03-23T14:18:38;13.60;99.90
9949;DHT22;5013;51.840;8.276;2023-03-23T14:21:05;13.50;51.70
9949;DHT22;5013;51.840;8.276;2023-03-23T14:23:33;13.40;99.90
9949;DHT22;5013;51.840;8.276;2023-03-23T14:26:09;13.30;1.00
9949;DHT22;5013;51.840;8.276;2023-03-23T14:28:40;13.50;1.00
9949;DHT22;5013;51.840;8.276;2023-03-23T14:33:40;13.20;1.00
9949;DHT22;5013;51.840;8.276;2023-03-23T14:36:07;13.20;1.00
9949;DHT22;5013;51.840;8.276;2023-03-23T14:38:33;13.30;99.90
9949;DHT22;5013;51.840;8.276;2023-03-23T14:41:04;13.30;99.90
9949;DHT22;5013;51.840;8.276;2023-03-23T14:43:31;13.30;1.00
9949;DHT22;5013;51.840;8.276;2023-03-23T14:46:01;13.30;99.90
9949;DHT22;5013;51.840;8.276;2023-03-23T14:48:27;13.40;1.00
9949;DHT22;5013;51.840;8.276;2023-03-23T14:51:02;13.40;1.00
9949;DHT22;5013;51.840;8.276;2023-03-23T14:56:09;13.40;1.00
9949;DHT22;5013;51.840;8.276;2023-03-23T14:58:36;13.40;99.90
9949;DHT22;5013;51.840;8.276;2023-03-23T15:01:15;13.30;99.90
9949;DHT22;5013;51.840;8.276;2023-03-23T15:06:26;13.80;1.00
9949;DHT22;5013;51.840;8.276;2023-03-23T15:08:55;13.80;99.90
9949;DHT22;5013;51.840;8.276;2023-03-23T15:11:35;13.90;99.90
9949;DHT22;5013;51.840;8.276;2023-03-23T15:14:16;14.10;99.90
9949;DHT22;5013;51.840;8.276;2023-03-23T15:16:47;14.10;1.00
9949;DHT22;5013;51.840;8.276;2023-03-23T15:19:28;14.10;99.90
9949;DHT22;5013;51.840;8.276;2023-03-23T15:21:56;14.20;1.00
9949;DHT22;5013;51.840;8.276;2023-03-23T15:24:31;14.20;1.00
9949;DHT22;5013;51.840;8.276;2023-03-23T15:29:31;14.30;1.00
9949;DHT22;5013;51.840;8.276;2023-03-23T15:31:57;14.20;99.90
9949;DHT22;5013;51.840;8.276;2023-03-23T15:34:32;14.30;99.90
9949;DHT22;5013;51.840;8.276;2023-03-23T15:37:05;14.20;71.00
9949;DHT22;5013;51.840;8.276;2023-03-23T15:39:32;14.20;1.00
9949;DHT22;5013;51.840;8.276;2023-03-23T15:41:59;14.20;99.90
9949;DHT22;5013;51.840;8.276;2023-03-23T15:44:32;14.30;99.90
9949;DHT22;5013;51.840;8.276;2023-03-23T15:47:18;14.20;1.00
9949;DHT22;5013;51.840;8.276;2023-03-23T15:49:46;14.30;99.90
9949;DHT22;5013;51.840;8.276;2023-03-23T15:52:13;14.30;99.90
9949;DHT22;5013;51.840;8.276;2023-03-23T15:54:46;14.10;99.90
9949;DHT22;5013;51.840;8.276;2023-03-23T15:57:12;14.10;99.90
9949;DHT22;5013;51.840;8.276;2023-03-23T15:59:38;14.10;1.00
9949;DHT22;5013;51.840;8.276;2023-03-23T16:02:04;14.00;1.00
9949;DHT22;5013;51.840;8.276;2023-03-23T16:04:30;13.90;1.00
9949;DHT22;5013;51.840;8.276;2023-03-23T16:06:56;13.80;99.90
9949;DHT22;5013;51.840;8.276;2023-03-23T16:09:23;13.70;99.90
9949;DHT22;5013;51.840;8.276;2023-03-23T16:11:49;13.60;1.00
9949;DHT22;5013;51.840;8.276;2023-03-23T16:14:15;13.50;99.90
9949;DHT22;5013;51.840;8.276;2023-03-23T16:16:44;13.50;1.00
9949;DHT22;5013;51.840;8.276;2023-03-23T16:19:12;13.60;99.90
9949;DHT22;5013;51.840;8.276;2023-03-23T16:21:39;13.70;1.00
9949;DHT22;5013;51.840;8.276;2023-03-23T16:24:05;13.50;1.00
9949;DHT22;5013;51.840;8.276;2023-03-23T16:26:31;13.50;1.00
9949;DHT22;5013;51.840;8.276;2023-03-23T16:28:57;13.50;1.40
9949;DHT22;5013;51.840;8.276;2023-03-23T16:31:23;13.40;1.00
9949;DHT22;5013;51.840;8.276;2023-03-23T16:33:48;13.50;5.20
9949;DHT22;5013;51.840;8.276;2023-03-23T16:36:14;13.60;99.90
9949;DHT22;5013;51.840;8.276;2023-03-23T16:38:40;13.50;1.00
9949;DHT22;5013;51.840;8.276;2023-03-23T16:41:07;13.60;1.00
9949;DHT22;5013;51.840;8.276;2023-03-23T16:43:33;13.70;1.00
9949;DHT22;5013;51.840;8.276;2023-03-23T16:45:58;13.70;99.90
9949;DHT22;5013;51.840;8.276;2023-03-23T16:48:24;13.80;99.90
9949;DHT22;5013;51.840;8.276;2023-03-23T16:50:51;13.60;1.00
9949;DHT22;5013;51.840;8.276;2023-03-23T16:53:19;13.60;1.00
9949;DHT22;5013;51.840;8.276;2023-03-23T16:55:45;13.60;99.90
9949;DHT22;5013;51.840;8.276;2023-03-23T16:58:13;13.50;1.00
9949;DHT22;5013;51.840;8.276;2023-03-23T17:00:38;13.50;1.00
9949;DHT22;5013;51.840;8.276;2023-03-23T17:03:05;13.40;1.00
9949;DHT22;5013;51.840;8.276;2023-03-23T17:05:30;13.30;14.10
9949;DHT22;5013;51.840;8.276;2023-03-23T17:07:56;13.20;99.90
9949;DHT22;5013;51.840;8.276;2023-03-23T17:10:24;13.10;99.90
9949;DHT22;5013;51.840;8.276;2023-03-23T17:12:52;13.20;1.00
9949;DHT22;5013;51.840;8.276;2023-03-23T17:15:17;13.20;1.00
9949;DHT22;5013;51.840;8.276;2023-03-23T17:17:43;13.10;1.00
9949;DHT22;5013;51.840;8.276;2023-03-23T17:20:09;13.10;1.00
9949;DHT22;5013;51.840;8.276;2023-03-23T17:22:36;13.00;99.90
9949;DHT22;5013;51.840;8.276;2023-03-23T17:25:21;13.00;1.00
9949;DHT22;5013;51.840;8.276;2023-03-23T17:27:47;13.00;1.00
9949;DHT22;5013;51.840;8.276;2023-03-23T17:30:13;12.90;1.00
9949;DHT22;5013;51.840;8.276;2023-03-23T17:32:38;12.90;99.90
9949;DHT22;5013;51.840;8.276;2023-03-23T17:35:04;12.90;1.00
9949;DHT22;5013;51.840;8.276;2023-03-23T17:37:31;12.90;1.00
9949;DHT22;5013;51.840;8.276;2023-03-23T17:39:57;12.90;99.90
9949;DHT22;5013;51.840;8.276;2023-03-23T17:42:22;12.80;1.00
9949;DHT22;5013;51.840;8.276;2023-03-23T17:44:48;12.80;1.00
9949;DHT22;5013;51.840;8.276;2023-03-23T17:47:14;12.80;1.00
9949;DHT22;5013;51.840;8.276;2023-03-23T17:49:40;12.80;1.00
9949;DHT22;5013;51.840;8.276;2023-03-23T17:52:05;12.90;1.00
9949;DHT22;5013;51.840;8.276;2023-03-23T17:54:31;12.80;1.00
9949;DHT22;5013;51.840;8.276;2023-03-23T17:56:57;12.70;1.00
9949;DHT22;5013;51.840;8.276;2023-03-23T17:59:24;12.70;1.00
9949;DHT22;5013;51.840;8.276;2023-03-23T18:01:50;12.60;1.00
9949;DHT22;5013;51.840;8.276;2023-03-23T18:04:16;12.60;1.00
9949;DHT22;5013;51.840;8.276;2023-03-23T18:06:42;12.50;1.00
9949;DHT22;5013;51.840;8.276;2023-03-23T18:09:08;12.50;1.00
9949;DHT22;5013;51.840;8.276;2023-03-23T18:11:34;12.40;99.90
9949;DHT22;5013;51.840;8.276;2023-03-23T18:13:59;12.30;99.90
9949;DHT22;5013;51.840;8.276;2023-03-23T18:16:25;12.30;1.00
9949;DHT22;5013;51.840;8.276;2023-03-23T18:18:51;12.20;1.00
9949;DHT22;5013;51.840;8.276;2023-03-23T18:21:17;12.10;1.00
9949;DHT22;5013;51.840;8.276;2023-03-23T18:23:42;12.10;1.00
9949;DHT22;5013;51.840;8.276;2023-03-23T18:26:10;12.00;99.90
9949;DHT22;5013;51.840;8.276;2023-03-23T18:28:36;12.00;99.90
9949;DHT22;5013;51.840;8.276;2023-03-23T18:31:07;11.90;99.90
9949;DHT22;5013;51.840;8.276;2023-03-23T18:33:34;11.90;99.90
9949;DHT22;5013;51.840;8.276;2023-03-23T18:36:03;11.80;1.00
9949;DHT22;5013;51.840;8.276;2023-03-23T18:41:51;11.70;1.00
9949;DHT22;5013;51.840;8.276;2023-03-23T18:44:16;11.60;99.90